Time;durP1;ratioP1;P1;durP2;ratioP2;P2;SDS_P1;SDS_P2;PMS_P1;PMS_P2;Temp;Humidity;BMP_temperature;BMP_pressure;BME280_temperature;BME280_humidity;BME280_pressure;Samples;Min_cycle;Max_cycle;Signal;HPM_P1;HPM_P2
2022/05/10 00:00:21;;;;;;;15.00;7.00;;;18.60;99.90;;;;;;5046524;28;20051;-77
2022/05/10 00:02:53;;;;;;;16.80;8.18;;;18.60;99.90;;;;;;5069977;28;20596;-77
2022/05/10 00:05:41;;;;;;;13.18;7.28;;;18.50;99.90;;;;;;5053776;28;20105;-77
2022/05/10 00:08:12;;;;;;;12.45;5.97;;;18.50;99.90;;;;;;5064484;28;20070;-77
2022/05/10 00:10:41;;;;;;;11.52;7.05;;;18.40;99.90;;;;;;5046450;28;20040;-77
2022/05/10 00:13:09;;;;;;;9.52;6.57;;;18.40;99.90;;;;;;5036806;28;20815;-77
2022/05/10 00:15:38;;;;;;;10.90;5.80;;;18.40;99.90;;;;;;5066185;28;20068;-77
2022/05/10 00:18:10;;;;;;;10.50;6.53;;;18.40;99.90;;;;;;5066816;28;20044;-77
2022/05/10 00:20:40;;;;;;;10.88;6.47;;;18.30;99.90;;;;;;5066483;28;20559;-77
2022/05/10 00:23:08;;;;;;;9.45;6.13;;;18.30;99.90;;;;;;5060539;28;20585;-77
2022/05/10 00:25:38;;;;;;;11.73;5.72;;;18.30;99.90;;;;;;5065388;28;20101;-77
2022/05/10 00:28:06;;;;;;;12.63;6.65;;;18.20;99.90;;;;;;5068100;28;20043;-77
2022/05/10 00:30:34;;;;;;;12.27;6.00;;;18.20;99.90;;;;;;5044029;28;20163;-77
2022/05/10 00:33:01;;;;;;;8.30;6.05;;;18.20;99.90;;;;;;5070026;28;20135;-77
2022/05/10 00:35:31;;;;;;;10.10;5.60;;;18.20;99.90;;;;;;5049910;28;20153;-77
2022/05/10 00:38:00;;;;;;;10.05;6.07;;;18.20;99.90;;;;;;5047967;28;20135;-77
2022/05/10 00:40:34;;;;;;;9.57;6.00;;;18.20;99.90;;;;;;5049919;28;20056;-77
2022/05/10 00:43:20;;;;;;;9.23;5.75;;;18.20;99.90;;;;;;5086084;28;20040;-77
2022/05/10 00:46:01;;;;;;;10.32;5.70;;;18.10;99.90;;;;;;5067053;28;20143;-77
2022/05/10 00:48:45;;;;;;;14.88;7.18;;;18.10;99.90;;;;;;5067486;28;20059;-77
2022/05/10 00:51:16;;;;;;;12.45;6.55;;;18.00;99.90;;;;;;5035077;28;20051;-77
2022/05/10 00:54:22;;;;;;;12.65;6.95;;;18.00;99.90;;;;;;5046707;28;20239;-77
2022/05/10 00:57:12;;;;;;;11.68;6.72;;;18.00;99.90;;;;;;5051188;28;20457;-77
2022/05/10 00:59:47;;;;;;;12.07;7.40;;;17.90;99.90;;;;;;5068486;28;20036;-77
2022/05/10 01:02:44;;;;;;;12.15;6.53;;;17.90;99.90;;;;;;5063246;28;20667;-76
2022/05/10 01:05:38;;;;;;;12.90;8.63;;;17.90;99.90;;;;;;5067599;28;20513;-76
2022/05/10 01:08:15;;;;;;;12.63;6.97;;;17.80;99.90;;;;;;5064362;28;20044;-76
2022/05/10 01:10:48;;;;;;;11.80;8.02;;;17.80;99.90;;;;;;5057662;28;20036;-77
2022/05/10 01:13:22;;;;;;;12.15;7.13;;;17.80;99.90;;;;;;5035607;28;20101;-76
2022/05/10 01:16:08;;;;;;;12.77;7.38;;;17.80;99.90;;;;;;5046074;28;20136;-76
2022/05/10 01:18:36;;;;;;;12.00;6.32;;;17.70;99.90;;;;;;5070056;28;20132;-76
2022/05/10 01:21:42;;;;;;;13.00;6.80;;;17.80;99.90;;;;;;5090194;28;20075;-76
2022/05/10 01:24:16;;;;;;;13.65;7.00;;;17.70;99.90;;;;;;5048148;28;20059;-76
2022/05/10 01:27:05;;;;;;;10.52;5.65;;;17.70;99.90;;;;;;5074508;28;20433;-76
2022/05/10 01:29:59;;;;;;;18.70;7.03;;;17.70;99.90;;;;;;5018482;28;20082;-76
2022/05/10 01:35:43;;;;;;;10.60;6.25;;;17.60;99.90;;;;;;5052026;28;20048;-76
2022/05/10 01:38:27;;;;;;;14.40;6.82;;;17.70;99.90;;;;;;5055915;28;20650;-76
2022/05/10 01:41:02;;;;;;;8.02;5.88;;;17.70;99.90;;;;;;5055213;28;20044;-76
2022/05/10 01:43:45;;;;;;;12.35;5.70;;;17.70;99.90;;;;;;5072125;28;20054;-76
2022/05/10 01:46:20;;;;;;;12.20;6.00;;;17.70;99.90;;;;;;5055717;28;20087;-76
2022/05/10 01:48:52;;;;;;;11.32;5.82;;;17.70;99.90;;;;;;5089985;28;20063;-76
2022/05/10 01:51:30;;;;;;;11.35;5.20;;;17.70;99.90;;;;;;5054549;28;20138;-76
2022/05/10 01:53:58;;;;;;;8.93;6.03;;;17.70;99.90;;;;;;5055454;28;20076;-75
2022/05/10 01:56:29;;;;;;;12.07;6.57;;;17.70;99.90;;;;;;5055050;28;20101;-76
2022/05/10 01:58:57;;;;;;;10.10;5.45;;;17.70;99.90;;;;;;5055199;28;20044;-76
2022/05/10 02:01:33;;;;;;;11.57;4.85;;;17.70;99.90;;;;;;5054633;28;20050;-76
2022/05/10 02:04:09;;;;;;;8.18;5.45;;;17.70;99.90;;;;;;5087335;28;20390;-76
2022/05/10 02:06:50;;;;;;;9.05;5.30;;;17.70;99.90;;;;;;5054391;28;20129;-76
2022/05/10 02:09:45;;;;;;;12.20;5.53;;;17.70;99.90;;;;;;5054857;28;20517;-76
2022/05/10 02:12:17;;;;;;;9.65;5.07;;;17.70;99.90;;;;;;5054376;28;20063;-76
2022/05/10 02:15:02;;;;;;;10.32;5.00;;;17.60;99.90;;;;;;5053809;28;20048;-76
2022/05/10 02:18:02;;;;;;;9.15;4.60;;;17.60;99.90;;;;;;5070877;28;20101;-76
2022/05/10 02:21:02;;;;;;;7.80;4.82;;;17.60;99.90;;;;;;5086488;28;20502;-76
2022/05/10 02:23:37;;;;;;;14.48;6.05;;;17.60;99.90;;;;;;5051875;28;20052;-76
2022/05/10 02:26:11;;;;;;;8.02;5.60;;;17.60;99.90;;;;;;5058241;28;20135;-76
2022/05/10 02:28:47;;;;;;;8.25;4.57;;;17.70;99.90;;;;;;5057873;28;20040;-76
2022/05/10 02:34:36;;;;;;;10.40;5.10;;;17.50;99.90;;;;;;5057901;28;20577;-76
2022/05/10 02:37:04;;;;;;;7.15;4.57;;;17.50;99.90;;;;;;5057472;28;20048;-76
2022/05/10 02:39:32;;;;;;;11.48;5.47;;;17.40;99.90;;;;;;5057517;28;20052;-76
2022/05/10 02:42:00;;;;;;;11.00;5.25;;;17.50;99.90;;;;;;5074298;28;20055;-76
2022/05/10 02:44:29;;;;;;;8.20;5.00;;;17.50;99.90;;;;;;5074571;28;20050;-76
2022/05/10 02:46:57;;;;;;;12.73;5.28;;;17.60;99.90;;;;;;5057781;28;20127;-76
2022/05/10 02:49:24;;;;;;;13.20;6.82;;;17.70;99.90;;;;;;5057331;28;20046;-76
2022/05/10 02:51:52;;;;;;;16.95;8.27;;;17.70;99.90;;;;;;5038307;28;20065;-76
2022/05/10 02:54:19;;;;;;;10.38;5.85;;;17.70;99.90;;;;;;5067472;28;20757;-76
2022/05/10 02:56:48;;;;;;;11.77;5.55;;;17.80;99.90;;;;;;5054801;28;20041;-77
2022/05/10 02:59:25;;;;;;;8.77;5.25;;;17.80;99.90;;;;;;5056931;28;20071;-76
2022/05/10 03:01:59;;;;;;;11.13;6.38;;;17.70;99.90;;;;;;5056208;28;20253;-76
2022/05/10 03:04:35;;;;;;;13.80;6.35;;;17.80;99.90;;;;;;5066835;28;20055;-76
2022/05/10 03:07:04;;;;;;;;;;;17.70;99.90;;;;;;5037488;28;20067;-76
2022/05/10 03:09:32;;;;;;;8.20;5.40;;;17.70;99.90;;;;;;5037001;28;20297;-76
2022/05/10 03:12:04;;;;;;;10.00;4.82;;;17.80;99.90;;;;;;5087108;28;20135;-77
2022/05/10 03:14:32;;;;;;;13.23;6.18;;;17.80;99.90;;;;;;5053726;28;20141;-76
2022/05/10 03:16:59;;;;;;;10.23;4.53;;;17.80;99.90;;;;;;5037124;28;20181;-76
2022/05/10 03:19:27;;;;;;;21.25;6.13;;;17.80;99.90;;;;;;5053766;28;20099;-77
2022/05/10 03:21:55;;;;;;;11.75;5.80;;;17.80;99.90;;;;;;5053705;28;20544;-76
2022/05/10 03:24:23;;;;;;;9.15;4.68;;;17.80;99.90;;;;;;5036752;28;20056;-76
2022/05/10 03:26:52;;;;;;;10.10;5.32;;;17.70;99.90;;;;;;5036940;28;20461;-76
2022/05/10 03:29:20;;;;;;;10.82;6.47;;;17.70;99.90;;;;;;5036282;28;20047;-76
2022/05/10 03:31:49;;;;;;;12.43;5.80;;;17.70;99.90;;;;;;5036071;28;20040;-76
2022/05/10 03:37:04;;;;;;;11.07;5.55;;;17.70;99.90;;;;;;5035476;28;20143;-76
2022/05/10 03:39:32;;;;;;;10.95;5.50;;;17.70;99.90;;;;;;5036089;28;20501;-76
2022/05/10 03:42:00;;;;;;;10.10;5.68;;;17.70;99.90;;;;;;5084951;28;20056;-76
2022/05/10 03:44:31;;;;;;;9.63;5.78;;;17.70;99.90;;;;;;5056954;28;20742;-76
2022/05/10 03:47:05;;;;;;;10.98;5.70;;;17.70;99.90;;;;;;5071110;28;20520;-76
2022/05/10 03:49:33;;;;;;;11.38;5.88;;;17.70;99.90;;;;;;5072950;28;20042;-76
2022/05/10 03:52:01;;;;;;;9.00;5.43;;;17.70;99.90;;;;;;5056836;28;20052;-77
2022/05/10 03:54:29;;;;;;;9.70;5.90;;;17.80;99.90;;;;;;5073468;28;20041;-76
2022/05/10 03:56:58;;;;;;;12.52;5.88;;;17.70;99.90;;;;;;5056656;28;20040;-76
2022/05/10 03:59:26;;;;;;;9.90;5.68;;;17.80;99.90;;;;;;5052797;28;20057;-76
2022/05/10 04:01:53;;;;;;;10.20;5.38;;;17.80;99.90;;;;;;5056411;28;20044;-76
2022/05/10 04:04:22;;;;;;;13.48;6.53;;;17.80;99.90;;;;;;5056838;28;20130;-76
2022/05/10 04:06:50;;;;;;;10.70;5.38;;;17.90;99.90;;;;;;5091321;28;20490;-76
2022/05/10 04:09:17;;;;;;;11.85;5.60;;;17.90;99.90;;;;;;5072496;28;20059;-76
2022/05/10 04:11:45;;;;;;;9.57;5.38;;;17.90;99.90;;;;;;5039722;28;20135;-76
2022/05/10 04:14:13;;;;;;;9.45;5.70;;;18.00;99.90;;;;;;5072736;28;20037;-76
2022/05/10 04:16:41;;;;;;;9.25;5.43;;;18.10;99.90;;;;;;5039006;28;20093;-76
2022/05/10 04:19:09;;;;;;;12.30;5.22;;;18.10;99.90;;;;;;5072655;28;20141;-76
2022/05/10 04:21:37;;;;;;;13.77;6.45;;;18.20;99.90;;;;;;5055666;28;20098;-76
2022/05/10 04:24:05;;;;;;;12.63;6.60;;;18.30;99.90;;;;;;5055882;28;20676;-76
2022/05/10 04:26:33;;;;;;;15.00;7.07;;;18.40;99.90;;;;;;5055898;28;20052;-76
2022/05/10 04:29:03;;;;;;;10.27;6.40;;;18.60;99.90;;;;;;5056596;28;20486;-76
2022/05/10 04:31:31;;;;;;;12.40;5.53;;;18.80;99.90;;;;;;5055955;28;20048;-76
2022/05/10 04:33:59;;;;;;;9.13;5.65;;;18.90;99.90;;;;;;5071749;28;20044;-76
2022/05/10 04:36:27;;;;;;;10.43;5.15;;;19.00;99.90;;;;;;5054282;28;20163;-76
2022/05/10 04:38:54;;;;;;;11.05;5.82;;;19.10;99.90;;;;;;5066040;28;20053;-76
2022/05/10 04:41:26;;;;;;;11.63;5.25;;;19.20;99.90;;;;;;5068665;28;20037;-76
2022/05/10 04:44:09;;;;;;;9.90;5.85;;;19.30;99.90;;;;;;5040841;28;20202;-76
2022/05/10 04:46:40;;;;;;;9.07;4.90;;;19.50;99.90;;;;;;5032604;28;20052;-76
2022/05/10 04:49:10;;;;;;;9.60;5.10;;;19.60;99.90;;;;;;5048039;28;20063;-76
2022/05/10 04:51:38;;;;;;;10.93;5.95;;;19.70;99.90;;;;;;5035719;28;20075;-76
2022/05/10 04:54:07;;;;;;;9.40;5.40;;;19.80;99.90;;;;;;5065083;28;20055;-76
2022/05/10 04:56:35;;;;;;;8.77;5.03;;;19.90;99.80;;;;;;5027744;28;20040;-76
2022/05/10 04:59:03;;;;;;;14.98;5.10;;;20.10;99.80;;;;;;5068514;28;20044;-76
2022/05/10 05:01:31;;;;;;;12.45;5.50;;;20.20;99.60;;;;;;5093184;28;20760;-78
2022/05/10 05:04:00;;;;;;;11.38;4.97;;;20.30;99.70;;;;;;5090664;28;20059;-76
2022/05/10 05:06:29;;;;;;;11.80;5.57;;;20.30;99.30;;;;;;5071319;28;20135;-76
2022/05/10 05:08:57;;;;;;;12.05;5.57;;;20.40;99.30;;;;;;5068484;28;20135;-76
2022/05/10 05:11:25;;;;;;;15.27;6.80;;;20.50;99.20;;;;;;5065825;28;20051;-76
2022/05/10 05:13:53;;;;;;;12.85;7.40;;;20.60;99.10;;;;;;5050340;28;20048;-73
2022/05/10 05:16:21;;;;;;;20.98;7.28;;;20.70;99.00;;;;;;5030926;28;20053;-74
2022/05/10 05:18:50;;;;;;;15.35;6.32;;;20.80;98.80;;;;;;5046529;28;20049;-74
2022/05/10 05:21:17;;;;;;;17.40;7.13;;;20.90;98.70;;;;;;5064558;28;20072;-75
2022/05/10 05:23:46;;;;;;;12.32;6.95;;;21.00;98.60;;;;;;5033648;28;20052;-75
2022/05/10 05:26:14;;;;;;;13.30;6.88;;;21.00;98.40;;;;;;5034866;28;20063;-73
2022/05/10 05:28:41;;;;;;;11.43;5.88;;;21.20;98.50;;;;;;5069377;28;20040;-73
2022/05/10 05:31:11;;;;;;;12.75;6.47;;;21.30;98.40;;;;;;5047951;28;20087;-74
2022/05/10 05:33:39;;;;;;;9.35;5.57;;;21.40;98.10;;;;;;5054374;28;20098;-73
2022/05/10 05:36:07;;;;;;;8.80;5.18;;;21.50;98.00;;;;;;5054733;28;20483;-74
2022/05/10 05:38:35;;;;;;;10.50;5.85;;;21.50;97.80;;;;;;5055496;28;20044;-73
2022/05/10 05:41:03;;;;;;;10.30;5.13;;;21.60;97.70;;;;;;5054596;28;20146;-73
2022/05/10 05:43:31;;;;;;;12.98;5.25;;;21.70;97.60;;;;;;5054259;28;20105;-73
2022/05/10 05:45:58;;;;;;;7.82;4.55;;;21.80;97.50;;;;;;5071770;28;20485;-73
2022/05/10 05:48:26;;;;;;;7.72;4.43;;;21.90;97.50;;;;;;5071292;28;20447;-74
2022/05/10 05:50:53;;;;;;;10.23;4.97;;;22.00;97.20;;;;;;5071277;28;20482;-74
2022/05/10 05:53:22;;;;;;;13.10;5.53;;;22.00;97.30;;;;;;5071292;28;20059;-75
2022/05/10 05:55:49;;;;;;;10.68;4.00;;;22.20;97.20;;;;;;5054743;28;20051;-75
2022/05/10 05:58:17;;;;;;;11.55;5.18;;;22.30;96.90;;;;;;5054481;28;20070;-74
2022/05/10 06:00:46;;;;;;;11.23;4.05;;;22.30;96.90;;;;;;5093131;28;20052;-74
2022/05/10 06:03:13;;;;;;;10.82;5.43;;;22.50;96.80;;;;;;5058682;28;20139;-75
2022/05/10 06:05:41;;;;;;;8.90;4.40;;;22.50;96.70;;;;;;5093089;28;20048;-75
2022/05/10 06:08:09;;;;;;;13.15;5.85;;;22.70;96.50;;;;;;5058285;28;20048;-74
2022/05/10 06:10:38;;;;;;;7.57;5.00;;;22.70;96.20;;;;;;5057810;28;20051;-74
2022/05/10 06:13:05;;;;;;;9.88;5.15;;;22.70;96.00;;;;;;5058478;28;20502;-76
2022/05/10 06:15:33;;;;;;;12.38;4.32;;;22.80;95.90;;;;;;5092792;28;20047;-75
2022/05/10 06:18:04;;;;;;;15.40;6.10;;;22.90;95.90;;;;;;5075018;28;20506;-75
2022/05/10 06:20:32;;;;;;;10.75;5.07;;;23.00;96.10;;;;;;5075487;28;20119;-75
2022/05/10 06:23:01;;;;;;;11.82;3.88;;;23.00;95.90;;;;;;5074952;28;20585;-74
2022/05/10 06:25:28;;;;;;;12.73;4.85;;;22.90;95.70;;;;;;5041571;28;20147;-75
2022/05/10 06:27:56;;;;;;;9.05;4.03;;;23.00;95.70;;;;;;5056349;28;20486;-75
2022/05/10 06:30:25;;;;;;;9.55;4.53;;;22.90;95.50;;;;;;5057476;28;20490;-75
2022/05/10 06:32:56;;;;;;;11.77;4.85;;;23.00;95.70;;;;;;5092941;28;20044;-75
2022/05/10 06:35:24;;;;;;;8.25;4.20;;;23.00;95.70;;;;;;5074331;28;20044;-75
2022/05/10 06:40:41;;;;;;;7.88;3.88;;;23.30;95.30;;;;;;5073986;28;20509;-74
2022/05/10 06:43:09;;;;;;;10.95;4.38;;;23.40;95.10;;;;;;5074412;28;20916;-75
2022/05/10 06:45:39;;;;;;;11.73;4.65;;;23.50;95.00;;;;;;5057956;28;20523;-74
2022/05/10 06:48:09;;;;;;;11.85;4.50;;;23.50;94.90;;;;;;5041286;28;20056;-74
2022/05/10 06:50:38;;;;;;;8.32;4.72;;;23.50;95.00;;;;;;5074809;28;20043;-74
2022/05/10 06:53:06;;;;;;;7.93;4.38;;;23.50;95.00;;;;;;5057653;28;20048;-76
2022/05/10 06:55:36;;;;;;;10.93;5.68;;;23.50;95.00;;;;;;5073978;28;20051;-75
2022/05/10 06:58:04;;;;;;;8.15;4.03;;;23.50;94.90;;;;;;5057530;28;20077;-74
2022/05/10 07:00:37;;;;;;;9.98;5.90;;;23.60;94.80;;;;;;5074537;28;20040;-75
2022/05/10 07:03:07;;;;;;;8.50;4.88;;;23.50;94.70;;;;;;5058201;28;20048;-75
2022/05/10 07:05:35;;;;;;;12.93;5.13;;;23.70;94.60;;;;;;5073877;28;20563;-75
2022/05/10 07:08:03;;;;;;;6.35;3.78;;;23.70;94.60;;;;;;5092223;28;20063;-75
2022/05/10 07:10:31;;;;;;;9.85;4.38;;;23.80;94.40;;;;;;5057099;28;20051;-74
2022/05/10 07:12:59;;;;;;;6.88;3.88;;;23.80;94.40;;;;;;5074330;28;20063;-75
2022/05/10 07:15:27;;;;;;;15.13;4.43;;;23.90;94.40;;;;;;5057609;28;20051;-75
2022/05/10 07:17:55;;;;;;;11.40;4.07;;;24.10;94.40;;;;;;5055880;28;20094;-75
2022/05/10 07:20:23;;;;;;;8.57;4.72;;;24.20;94.00;;;;;;5037413;28;20060;-76
2022/05/10 07:22:50;;;;;;;10.38;4.93;;;24.30;93.80;;;;;;5071650;28;20044;-75
2022/05/10 07:25:21;;;;;;;10.55;5.22;;;24.40;93.90;;;;;;5053681;28;20063;-75
2022/05/10 07:27:49;;;;;;;13.55;4.38;;;24.50;93.50;;;;;;5069831;28;20040;-76
2022/05/10 07:30:16;;;;;;;10.85;4.25;;;24.50;93.60;;;;;;5071732;28;20048;-75
2022/05/10 07:32:44;;;;;;;10.95;3.95;;;24.60;93.40;;;;;;5036272;28;20958;-74
2022/05/10 07:35:12;;;;;;;9.60;4.70;;;24.70;93.40;;;;;;5070397;28;20044;-75
2022/05/10 07:37:40;;;;;;;11.35;4.65;;;24.80;93.00;;;;;;5069998;28;20123;-75
2022/05/10 07:40:10;;;;;;;8.68;3.85;;;24.80;92.90;;;;;;5069938;28;20055;-75
2022/05/10 07:42:40;;;;;;;10.48;4.80;;;24.80;93.00;;;;;;5070054;28;20452;-75
2022/05/10 07:45:10;;;;;;;12.38;4.10;;;24.50;93.30;;;;;;5053023;28;20052;-75
2022/05/10 07:47:43;;;;;;;11.48;4.45;;;24.50;93.30;;;;;;5069882;28;20510;-74
2022/05/10 07:50:13;;;;;;;9.35;4.15;;;24.60;93.00;;;;;;5071280;28;20047;-74
2022/05/10 07:52:41;;;;;;;12.10;4.53;;;24.60;93.00;;;;;;5069890;28;20045;-74
2022/05/10 07:55:09;;;;;;;11.50;4.97;;;24.60;92.80;;;;;;5052907;28;20045;-75
2022/05/10 07:57:37;;;;;;;7.15;3.90;;;24.80;93.10;;;;;;5053626;28;20052;-75
2022/05/10 08:00:12;;;;;;;9.15;4.60;;;25.00;92.70;;;;;;5070843;28;20040;-75
2022/05/10 08:02:44;;;;;;;12.40;4.80;;;25.00;92.50;;;;;;5071408;28;20056;-75
2022/05/10 08:05:19;;;;;;;11.75;4.13;;;25.10;92.30;;;;;;5053227;28;20056;-75
2022/05/10 08:07:47;;;;;;;12.63;3.95;;;25.10;92.20;;;;;;5071271;28;20050;-74
2022/05/10 08:10:15;;;;;;;10.60;4.00;;;25.10;91.60;;;;;;5055088;28;20498;-75
2022/05/10 08:12:43;;;;;;;11.68;4.20;;;25.10;91.90;;;;;;5072878;28;20058;-75
2022/05/10 08:15:15;;;;;;;9.10;4.30;;;25.10;92.50;;;;;;5056718;28;20534;-75
2022/05/10 08:17:42;;;;;;;10.43;4.55;;;25.10;92.00;;;;;;5054346;28;20060;-74
2022/05/10 08:20:10;;;;;;;7.75;4.82;;;24.80;92.10;;;;;;5072401;28;20032;-75
2022/05/10 08:22:39;;;;;;;8.60;3.75;;;24.80;92.40;;;;;;5055878;28;20146;-74
2022/05/10 08:25:07;;;;;;;11.02;5.72;;;25.00;92.40;;;;;;5072525;28;20498;-75
2022/05/10 08:27:35;;;;;;;14.40;5.22;;;24.90;92.40;;;;;;5090697;28;20058;-75
2022/05/10 08:30:03;;;;;;;12.75;4.45;;;24.90;92.80;;;;;;5072849;28;20477;-74
2022/05/10 08:32:30;;;;;;;11.07;4.40;;;25.10;92.70;;;;;;5055568;28;20044;-75
2022/05/10 08:35:02;;;;;;;10.32;4.55;;;25.30;92.60;;;;;;5040016;28;20055;-75
2022/05/10 08:37:29;;;;;;;11.18;5.18;;;25.40;92.30;;;;;;5089933;28;20058;-75
2022/05/10 08:39:58;;;;;;;12.27;3.85;;;25.40;92.20;;;;;;5072700;28;20040;-76
2022/05/10 08:42:31;;;;;;;9.75;3.63;;;25.40;92.00;;;;;;5090301;28;20044;-74
2022/05/10 08:45:03;;;;;;;8.98;4.97;;;25.50;91.80;;;;;;5090265;28;20055;-75
2022/05/10 08:47:31;;;;;;;22.50;5.07;;;25.20;92.00;;;;;;5055316;28;20085;-74
2022/05/10 08:50:06;;;;;;;15.25;5.00;;;25.30;92.40;;;;;;5090379;28;20056;-74
2022/05/10 08:52:52;;;;;;;7.82;4.47;;;25.20;92.20;;;;;;5071893;28;20080;-74
2022/05/10 08:55:30;;;;;;;9.25;4.85;;;25.30;92.20;;;;;;5048487;28;20056;-74
2022/05/10 08:58:03;;;;;;;10.67;3.60;;;25.50;92.00;;;;;;5048279;28;20052;-74
2022/05/10 09:01:04;;;;;;;10.68;4.85;;;25.60;92.00;;;;;;5055276;28;20791;-76
2022/05/10 09:03:40;;;;;;;8.35;4.10;;;25.70;91.90;;;;;;5057011;28;20072;-76
2022/05/10 09:06:23;;;;;;;11.07;4.57;;;25.80;91.80;;;;;;5056194;28;20469;-74
2022/05/10 09:09:12;;;;;;;10.00;4.63;;;25.90;91.70;;;;;;5055835;28;20047;-72
2022/05/10 09:12:03;;;;;;;7.13;4.30;;;25.90;91.60;;;;;;5042375;28;20040;-72
2022/05/10 09:14:58;;;;;;;12.45;4.82;;;25.80;91.50;;;;;;5072780;28;20044;-72
2022/05/10 09:17:29;;;;;;;10.65;4.78;;;25.50;91.50;;;;;;5089871;28;20656;-72
2022/05/10 09:19:58;;;;;;;11.45;4.60;;;25.40;91.90;;;;;;5072554;28;20055;-72
2022/05/10 09:23:04;;;;;;;12.82;5.00;;;25.40;92.10;;;;;;5072585;28;20075;-73
2022/05/10 09:25:36;;;;;;;7.82;3.75;;;25.70;91.80;;;;;;5055546;28;20052;-73
2022/05/10 09:28:13;;;;;;;16.75;4.88;;;25.70;91.60;;;;;;5055715;28;20063;-74
2022/05/10 09:34:45;;;;;;;12.40;4.10;;;25.80;91.50;;;;;;5055482;28;20098;-74
2022/05/10 09:36:26;;;;;;;10.10;4.70;;;26.00;91.10;;;;;;5089861;28;20047;-74
2022/05/10 09:39:01;;;;;;;8.40;4.47;;;26.00;91.10;;;;;;5055041;28;20131;-72
2022/05/10 09:41:40;;;;;;;11.93;4.55;;;26.10;91.00;;;;;;5055593;28;20036;-73
2022/05/10 09:44:29;;;;;;;12.48;4.38;;;26.10;91.00;;;;;;5072206;28;20040;-72
2022/05/10 09:47:18;;;;;;;13.23;4.80;;;26.20;90.90;;;;;;5072025;28;20055;-72
2022/05/10 09:49:46;;;;;;;8.85;5.28;;;26.20;91.00;;;;;;5089113;28;20048;-71
2022/05/10 09:52:21;;;;;;;7.72;4.07;;;26.40;91.00;;;;;;5090441;28;20075;-72
2022/05/10 09:54:52;;;;;;;10.13;4.15;;;26.50;90.80;;;;;;5088352;28;20062;-72
2022/05/10 09:57:33;;;;;;;16.77;5.03;;;26.50;90.40;;;;;;5089986;28;20040;-71
2022/05/10 10:00:01;;;;;;;13.00;5.75;;;26.40;90.40;;;;;;5090125;28;20058;-71
2022/05/10 10:02:36;;;;;;;13.07;4.75;;;26.10;90.50;;;;;;5039279;28;20048;-71
2022/05/10 10:05:28;;;;;;;12.23;5.57;;;26.00;90.80;;;;;;5071792;28;20040;-73
2022/05/10 10:07:57;;;;;;;13.57;4.80;;;25.90;90.70;;;;;;5054686;28;20048;-71
2022/05/10 10:10:38;;;;;;;10.02;5.07;;;25.90;90.80;;;;;;5071102;28;20039;-72
2022/05/10 10:13:33;;;;;;;11.32;5.03;;;25.90;90.40;;;;;;5071629;28;20050;-73
2022/05/10 10:16:01;;;;;;;15.20;5.38;;;25.90;90.60;;;;;;5053410;28;20101;-72
2022/05/10 10:19:18;;;;;;;11.40;6.05;;;25.90;90.80;;;;;;5071335;28;20043;-71
2022/05/10 10:22:06;;;;;;;10.63;5.70;;;26.00;91.00;;;;;;5035853;28;20087;-71
2022/05/10 10:24:37;;;;;;;8.30;5.13;;;26.10;90.40;;;;;;5089159;28;20041;-72
2022/05/10 10:27:31;;;;;;;11.55;6.00;;;25.90;90.80;;;;;;5038244;28;20138;-71
2022/05/10 10:30:05;;;;;;;11.20;5.07;;;26.00;90.60;;;;;;5071075;28;20058;-71
2022/05/10 10:32:56;;;;;;;14.48;6.22;;;26.00;90.70;;;;;;5053943;28;20048;-71
2022/05/10 10:35:41;;;;;;;12.15;4.93;;;26.10;90.40;;;;;;5088292;28;20062;-72
2022/05/10 10:38:24;;;;;;;12.95;4.57;;;26.20;90.20;;;;;;5071228;28;20048;-72
2022/05/10 10:41:02;;;;;;;11.90;4.43;;;26.30;90.10;;;;;;5060116;28;20532;-75
2022/05/10 10:43:50;;;;;;;13.25;5.38;;;26.30;90.20;;;;;;5051715;28;20489;-71
2022/05/10 10:46:39;;;;;;;11.68;5.60;;;26.20;90.30;;;;;;5074632;28;20051;-71
2022/05/10 10:49:12;;;;;;;10.10;3.85;;;26.20;89.90;;;;;;5072582;28;20482;-71
2022/05/10 10:51:40;;;;;;;8.52;4.15;;;26.10;89.50;;;;;;5057580;28;20055;-71
2022/05/10 10:54:20;;;;;;;11.50;5.20;;;26.20;89.50;;;;;;5058129;28;20044;-71
2022/05/10 10:56:59;;;;;;;7.60;4.45;;;26.20;89.70;;;;;;5057635;28;20048;-71
2022/05/10 10:59:39;;;;;;;15.63;4.88;;;26.10;89.70;;;;;;5057762;28;20051;-72
2022/05/10 11:02:25;;;;;;;6.57;3.80;;;26.00;90.00;;;;;;5074381;28;20048;-73
2022/05/10 11:05:18;;;;;;;9.05;3.38;;;25.90;89.20;;;;;;5074455;28;20498;-72
2022/05/10 11:08:09;;;;;;;10.77;4.65;;;25.70;88.80;;;;;;5074663;28;20071;-71
2022/05/10 11:11:05;;;;;;;8.35;4.72;;;25.90;89.80;;;;;;5057844;28;20048;-72
2022/05/10 11:13:54;;;;;;;10.88;4.88;;;25.90;90.40;;;;;;5073974;28;20052;-72
2022/05/10 11:16:56;;;;;;;14.98;5.78;;;25.90;90.20;;;;;;5092142;28;20048;-72
2022/05/10 11:19:24;;;;;;;12.30;4.63;;;26.00;90.00;;;;;;5040106;28;20052;-71
2022/05/10 11:22:19;;;;;;;9.50;4.55;;;25.90;90.10;;;;;;5062723;28;20139;-71
2022/05/10 11:25:08;;;;;;;7.50;5.03;;;25.90;90.00;;;;;;5091707;28;20040;-71
2022/05/10 11:28:11;;;;;;;14.50;4.43;;;25.90;90.00;;;;;;5041101;28;20059;-71
2022/05/10 11:30:58;;;;;;;7.43;4.18;;;25.80;90.20;;;;;;5057109;28;20048;-71
2022/05/10 11:33:41;;;;;;;11.02;5.40;;;25.70;90.00;;;;;;5073245;28;20404;-71
2022/05/10 11:36:48;;;;;;;8.07;4.57;;;25.70;90.20;;;;;;5057318;28;20066;-72
2022/05/10 11:39:24;;;;;;;8.80;4.00;;;25.70;90.10;;;;;;5091924;28;20044;-72
2022/05/10 11:42:22;;;;;;;9.70;3.90;;;25.80;90.10;;;;;;5074403;28;20134;-72
2022/05/10 11:44:58;;;;;;;12.13;4.35;;;25.80;90.30;;;;;;5073494;28;20501;-72
2022/05/10 11:47:44;;;;;;;9.55;4.30;;;25.80;90.30;;;;;;5073660;28;20060;-75
2022/05/10 11:50:34;;;;;;;7.05;4.22;;;25.80;90.50;;;;;;5052140;28;20503;-72
2022/05/10 11:53:03;;;;;;;8.63;4.57;;;25.80;89.20;;;;;;5053913;28;20398;-72
2022/05/10 11:55:36;;;;;;;8.20;5.28;;;25.90;89.20;;;;;;5036874;28;20070;-73
2022/05/10 11:58:08;;;;;;;10.10;3.53;;;25.80;89.50;;;;;;5053049;28;20044;-74
2022/05/10 12:00:36;;;;;;;11.77;4.80;;;25.70;89.10;;;;;;5053166;28;20048;-73
2022/05/10 12:03:13;;;;;;;17.08;5.20;;;25.80;89.00;;;;;;5070709;28;20136;-71
2022/05/10 12:05:41;;;;;;;11.38;4.38;;;25.80;88.60;;;;;;5056503;28;20083;-72
2022/05/10 12:08:19;;;;;;;7.68;4.25;;;25.80;88.30;;;;;;5062569;28;20037;-71
2022/05/10 12:10:47;;;;;;;13.10;4.30;;;25.70;88.20;;;;;;5039849;28;20067;-71
2022/05/10 12:22:52;;;;;;;11.60;4.80;;;25.40;88.50;;;;;;5082581;28;20494;-71
2022/05/10 12:25:42;;;;;;;10.40;4.05;;;25.40;88.90;;;;;;5053148;28;20056;-73
2022/05/10 12:28:10;;;;;;;14.32;4.45;;;25.40;88.70;;;;;;5036484;28;20138;-73
2022/05/10 12:30:38;;;;;;;10.20;4.72;;;25.40;89.50;;;;;;5038444;28;20374;-71
2022/05/10 12:33:36;;;;;;;10.65;4.60;;;25.40;89.60;;;;;;5062019;28;20044;-71
2022/05/10 12:36:08;;;;;;;13.65;4.57;;;25.50;89.00;;;;;;5049315;28;20421;-74
2022/05/10 12:38:48;;;;;;;6.82;4.15;;;25.40;89.20;;;;;;5064444;28;20043;-72
2022/05/10 12:41:48;;;;;;;10.45;4.05;;;25.40;88.60;;;;;;5084594;28;20045;-77
2022/05/10 12:44:37;;;;;;;8.77;4.13;;;25.30;88.10;;;;;;5074210;28;20051;-72
2022/05/10 12:47:32;;;;;;;10.15;4.55;;;25.10;88.70;;;;;;5049534;28;20052;-72
2022/05/10 12:50:30;;;;;;;8.10;4.00;;;25.20;90.00;;;;;;5036508;28;20380;-72
2022/05/10 12:52:59;;;;;;;9.52;4.43;;;25.20;89.70;;;;;;5036852;28;20122;-73
2022/05/10 12:55:34;;;;;;;14.32;4.10;;;25.20;88.60;;;;;;5053683;28;20052;-72
2022/05/10 12:58:19;;;;;;;9.70;4.40;;;25.10;89.00;;;;;;5048245;28;20502;-72
2022/05/10 13:00:54;;;;;;;10.40;3.72;;;25.20;89.10;;;;;;5055148;28;20135;-72
2022/05/10 13:03:28;;;;;;;10.27;4.22;;;25.20;90.00;;;;;;5050560;28;20060;-72
2022/05/10 13:06:10;;;;;;;7.43;3.60;;;25.20;89.10;;;;;;5040092;28;20773;-72
2022/05/10 13:09:04;;;;;;;10.18;3.90;;;25.00;89.10;;;;;;5043977;28;20049;-72
2022/05/10 13:11:46;;;;;;;8.48;4.60;;;25.00;89.70;;;;;;5048006;28;20142;-72
2022/05/10 13:14:15;;;;;;;8.13;3.78;;;25.00;90.10;;;;;;5073826;28;20045;-72
2022/05/10 13:16:54;;;;;;;7.97;4.60;;;25.00;90.00;;;;;;5039542;28;20158;-73
2022/05/10 13:19:24;;;;;;;8.63;3.85;;;25.00;89.90;;;;;;5070394;28;20048;-71
2022/05/10 13:21:56;;;;;;;8.98;3.92;;;25.00;90.10;;;;;;5063462;28;20044;-72
2022/05/10 13:24:26;;;;;;;6.03;3.42;;;25.00;87.30;;;;;;5070347;28;20073;-73
2022/05/10 13:26:54;;;;;;;8.07;4.65;;;24.90;86.40;;;;;;5051529;28;20101;-73
2022/05/10 13:29:48;;;;;;;7.40;3.50;;;24.90;87.00;;;;;;5054982;28;20098;-71
2022/05/10 13:32:42;;;;;;;7.90;3.28;;;25.00;86.30;;;;;;5045947;28;20055;-73
2022/05/10 13:35:19;;;;;;;5.00;2.97;;;25.10;86.40;;;;;;5035537;28;20543;-73
2022/05/10 13:37:57;;;;;;;7.03;3.05;;;25.10;85.70;;;;;;5074884;28;20821;-73
2022/05/10 13:40:47;;;;;;;4.28;2.80;;;25.20;84.80;;;;;;5071155;28;20055;-74
2022/05/10 13:43:29;;;;;;;7.25;3.20;;;25.20;83.60;;;;;;5078588;28;20475;-70